createdAt,value
2022-08-05T00:01:28.978Z,100.00
2022-08-05T00:03:57.242Z,100.00
2022-08-05T00:06:32.205Z,100.00
2022-08-05T00:09:00.582Z,100.00
2022-08-05T00:11:34.994Z,100.00
2022-08-05T00:14:16.922Z,100.00
2022-08-05T00:16:52.896Z,100.00
2022-08-05T00:19:22.498Z,100.00
2022-08-05T00:21:49.764Z,100.00
2022-08-05T00:24:19.313Z,100.00
2022-08-05T00:26:56.147Z,100.00
2022-08-05T00:29:25.779Z,100.00
2022-08-05T00:32:12.702Z,100.00
2022-08-05T00:35:04.133Z,100.00
2022-08-05T00:37:50.283Z,100.00
2022-08-05T00:40:17.861Z,100.00
2022-08-05T00:42:54.804Z,100.00
2022-08-05T00:45:28.008Z,100.00
2022-08-05T00:48:05.481Z,100.00
2022-08-05T00:50:32.749Z,100.00
2022-08-05T00:52:59.577Z,100.00
2022-08-05T00:55:34.190Z,100.00
2022-08-05T00:58:13.908Z,100.00
2022-08-05T01:00:42.209Z,100.00
2022-08-05T01:03:23.023Z,100.00
2022-08-05T01:05:51.370Z,100.00
2022-08-05T01:08:30.647Z,100.00
2022-08-05T01:11:37.064Z,100.00
2022-08-05T01:14:16.383Z,100.00
2022-08-05T01:17:06.005Z,100.00
2022-08-05T01:20:02.149Z,100.00
2022-08-05T01:22:42.621Z,100.00
2022-08-05T01:25:41.038Z,100.00
2022-08-05T01:28:26.754Z,100.00
2022-08-05T01:30:56.218Z,100.00
2022-08-05T01:33:29.551Z,100.00
2022-08-05T01:36:12.875Z,100.00
2022-08-05T01:38:46.070Z,100.00
2022-08-05T01:41:25.774Z,100.00
2022-08-05T01:43:53.721Z,100.00
2022-08-05T01:46:42.099Z,100.00
2022-08-05T01:49:22.717Z,100.00
2022-08-05T01:51:54.118Z,100.00
2022-08-05T01:54:24.652Z,100.00
2022-08-05T01:58:10.551Z,100.00
2022-08-05T01:59:47.182Z,100.00
2022-08-05T02:02:15.996Z,100.00
2022-08-05T02:04:46.152Z,100.00
2022-08-05T02:07:22.098Z,100.00
2022-08-05T02:09:51.012Z,100.00
2022-08-05T02:12:27.637Z,100.00
2022-08-05T02:15:03.791Z,100.00
2022-08-05T02:18:32.645Z,100.00
2022-08-05T02:20:24.830Z,100.00
2022-08-05T02:23:01.416Z,100.00
2022-08-05T02:25:50.257Z,100.00
2022-08-05T02:28:28.312Z,100.00
2022-08-05T02:31:00.461Z,100.00
2022-08-05T02:33:36.060Z,100.00
2022-08-05T02:36:09.309Z,100.00
2022-08-05T02:38:37.462Z,100.00
2022-08-05T02:41:06.491Z,100.00
2022-08-05T02:44:05.999Z,100.00
2022-08-05T02:46:33.737Z,100.00
2022-08-05T02:49:01.825Z,100.00
2022-08-05T02:52:03.614Z,100.00
2022-08-05T02:54:36.207Z,100.00
2022-08-05T02:57:10.259Z,100.00
2022-08-05T02:59:55.066Z,100.00
2022-08-05T03:02:28.244Z,100.00
2022-08-05T03:04:57.325Z,100.00
2022-08-05T03:08:00.809Z,100.00
2022-08-05T03:10:15.616Z,100.00
2022-08-05T03:12:49.494Z,100.00
2022-08-05T03:15:18.568Z,100.00
2022-08-05T03:17:45.063Z,100.00
2022-08-05T03:20:12.074Z,100.00
2022-08-05T03:22:44.046Z,100.00
2022-08-05T03:25:33.207Z,100.00
2022-08-05T03:28:02.932Z,100.00
2022-08-05T03:30:34.141Z,100.00
2022-08-05T03:33:06.171Z,100.00
2022-08-05T03:35:41.305Z,100.00
2022-08-05T03:38:12.677Z,100.00
2022-08-05T03:40:48.513Z,100.00
2022-08-05T03:44:09.571Z,100.00
2022-08-05T03:46:04.028Z,100.00
2022-08-05T03:48:35.557Z,100.00
2022-08-05T03:52:50.418Z,100.00
2022-08-05T03:55:07.010Z,100.00
2022-08-05T03:57:41.821Z,100.00
2022-08-05T04:00:04.723Z,100.00
2022-08-05T04:02:38.577Z,100.00
2022-08-05T04:05:13.016Z,100.00
2022-08-05T04:07:58.360Z,100.00
2022-08-05T04:10:27.465Z,100.00
2022-08-05T04:12:55.519Z,100.00
2022-08-05T04:15:25.568Z,100.00
2022-08-05T04:17:56.568Z,100.00
2022-08-05T04:20:26.530Z,100.00
2022-08-05T04:22:53.023Z,100.00
2022-08-05T04:25:19.751Z,100.00
2022-08-05T04:28:06.019Z,100.00
2022-08-05T04:30:37.989Z,100.00
2022-08-05T04:33:06.372Z,100.00
2022-08-05T04:36:10.698Z,100.00
2022-08-05T04:38:20.841Z,100.00
2022-08-05T04:40:50.589Z,100.00
2022-08-05T04:43:17.582Z,100.00
2022-08-05T04:45:54.898Z,100.00
2022-08-05T04:48:28.140Z,100.00
2022-08-05T04:51:02.614Z,100.00
2022-08-05T04:53:33.624Z,100.00
2022-08-05T04:56:32.998Z,100.00
2022-08-05T04:58:48.988Z,100.00
2022-08-05T05:01:15.681Z,100.00
2022-08-05T05:04:00.639Z,100.00
2022-08-05T05:06:38.827Z,100.00
2022-08-05T05:09:07.704Z,100.00
2022-08-05T05:11:52.788Z,100.00
2022-08-05T05:14:31.670Z,100.00
2022-08-05T05:17:03.357Z,100.00
2022-08-05T05:19:36.961Z,100.00
2022-08-05T05:22:24.496Z,100.00
2022-08-05T05:24:59.997Z,100.00
2022-08-05T05:27:45.521Z,100.00
2022-08-05T05:30:15.528Z,100.00
2022-08-05T05:32:56.484Z,100.00
2022-08-05T05:35:23.251Z,100.00
2022-08-05T05:37:59.432Z,99.81
2022-08-05T05:40:28.837Z,96.99
2022-08-05T05:42:57.592Z,94.24
2022-08-05T05:45:24.828Z,87.82
2022-08-05T05:48:05.259Z,85.80
2022-08-05T05:50:35.732Z,83.00
2022-08-05T05:53:22.404Z,84.20
2022-08-05T05:55:51.909Z,81.95
2022-08-05T05:58:31.529Z,80.02
2022-08-05T06:01:02.567Z,78.87
2022-08-05T06:04:00.469Z,79.58
2022-08-05T06:06:31.086Z,77.73
2022-08-05T06:09:00.099Z,77.19
2022-08-05T06:11:29.076Z,76.00
2022-08-05T06:13:56.723Z,75.28
2022-08-05T06:16:31.686Z,73.53
2022-08-05T06:19:01.852Z,73.46
2022-08-05T06:21:36.719Z,72.66
2022-08-05T06:24:12.248Z,73.56
2022-08-05T06:26:39.841Z,72.31
2022-08-05T06:29:25.551Z,71.90
2022-08-05T06:32:05.434Z,71.76
2022-08-05T06:34:48.163Z,71.11
2022-08-05T06:37:55.881Z,72.08
2022-08-05T06:40:07.374Z,70.12
2022-08-05T06:42:33.908Z,69.26
2022-08-05T06:45:00.386Z,70.53
2022-08-05T06:48:36.741Z,71.88
2022-08-05T06:50:18.960Z,72.57
2022-08-05T06:52:58.469Z,71.84
2022-08-05T06:55:25.690Z,74.36
2022-08-05T06:57:57.271Z,73.11
2022-08-05T07:00:31.372Z,74.54
2022-08-05T07:02:57.967Z,74.36
2022-08-05T07:05:36.976Z,71.94
2022-08-05T07:08:04.430Z,74.55
2022-08-05T07:10:32.730Z,71.13
2022-08-05T07:13:18.077Z,70.64
2022-08-05T07:17:56.312Z,70.29
2022-08-05T07:19:09.817Z,69.23
2022-08-05T07:24:23.876Z,66.51
2022-08-05T07:26:55.466Z,65.53
2022-08-05T07:29:25.329Z,67.13
2022-08-05T07:32:08.554Z,66.18
2022-08-05T07:34:38.135Z,68.21
2022-08-05T07:37:09.102Z,66.34
2022-08-05T07:40:26.970Z,66.74
2022-08-05T07:42:31.794Z,66.23
2022-08-05T07:45:00.863Z,61.91
2022-08-05T07:47:27.418Z,61.06
2022-08-05T07:50:09.411Z,61.92
2022-08-05T07:52:43.605Z,60.80
2022-08-05T07:55:15.717Z,64.33
2022-08-05T07:58:03.082Z,65.36
2022-08-05T08:00:30.775Z,62.93
2022-08-05T08:03:14.639Z,61.81
2022-08-05T08:05:49.311Z,63.29
2022-08-05T08:08:16.067Z,64.33
2022-08-05T08:10:48.931Z,63.40
2022-08-05T08:13:21.915Z,63.64
2022-08-05T08:16:35.347Z,66.77
2022-08-05T08:18:42.723Z,63.90
2022-08-05T08:21:17.720Z,63.21
2022-08-05T08:24:02.127Z,67.19
2022-08-05T08:26:31.008Z,68.34
2022-08-05T08:29:21.746Z,70.54
2022-08-05T08:31:46.100Z,69.43
2022-08-05T08:34:14.871Z,72.21
2022-08-05T08:36:52.377Z,70.93
2022-08-05T08:39:23.538Z,72.43
2022-08-05T08:41:59.879Z,71.81
2022-08-05T08:45:23.704Z,71.56
2022-08-05T08:48:06.433Z,71.02
2022-08-05T08:50:30.500Z,71.23
2022-08-05T08:53:11.889Z,72.11
2022-08-05T08:56:02.666Z,70.72
2022-08-05T08:58:37.644Z,66.66
2022-08-05T09:01:16.933Z,64.89
2022-08-05T09:03:48.210Z,62.26
2022-08-05T09:06:21.042Z,60.18
2022-08-05T09:08:50.512Z,58.81
2022-08-05T09:11:17.039Z,56.16
2022-08-05T09:14:00.960Z,54.83
2022-08-05T09:16:30.249Z,50.60
2022-08-05T09:18:59.420Z,52.04
2022-08-05T09:22:24.909Z,53.85
2022-08-05T09:24:15.638Z,54.48
2022-08-05T09:26:46.308Z,56.18
2022-08-05T09:29:18.738Z,54.77
2022-08-05T09:32:46.501Z,56.69
2022-08-05T09:34:55.085Z,49.75
2022-08-05T09:38:12.200Z,47.44
2022-08-05T09:40:30.058Z,45.11
2022-08-05T09:42:59.272Z,41.28
2022-08-05T09:46:07.397Z,39.87
2022-08-05T09:48:33.761Z,39.24
2022-08-05T09:51:03.545Z,38.77
2022-08-05T09:53:54.380Z,40.57
2022-08-05T09:56:31.034Z,40.42
2022-08-05T09:59:17.501Z,41.70
2022-08-05T10:01:46.603Z,40.49
2022-08-05T10:04:16.035Z,41.06
2022-08-05T10:06:59.482Z,40.37
2022-08-05T10:09:29.581Z,42.64
2022-08-05T10:12:30.801Z,39.89
2022-08-05T10:15:22.634Z,41.32
2022-08-05T10:18:10.539Z,42.65
2022-08-05T10:20:47.700Z,41.00
2022-08-05T10:23:34.104Z,43.95
2022-08-05T10:26:14.494Z,42.41
2022-08-05T10:28:43.944Z,40.38
2022-08-05T10:32:49.511Z,41.35
2022-08-05T10:34:00.356Z,42.32
2022-08-05T10:36:27.314Z,45.20
2022-08-05T10:39:10.116Z,45.11
2022-08-05T10:41:54.958Z,45.52
2022-08-05T10:44:24.701Z,44.03
2022-08-05T10:46:55.241Z,45.54
2022-08-05T10:49:27.379Z,45.94
2022-08-05T10:52:03.332Z,43.67
2022-08-05T10:55:01.944Z,46.06
2022-08-05T10:57:30.888Z,48.04
2022-08-05T11:00:16.099Z,48.05
2022-08-05T11:03:23.032Z,49.23
2022-08-05T11:06:08.539Z,49.56
2022-08-05T11:09:10.938Z,49.51
2022-08-05T11:11:52.371Z,50.85
2022-08-05T11:14:57.562Z,50.99
2022-08-05T11:18:00.416Z,51.88
2022-08-05T11:20:43.752Z,53.53
2022-08-05T11:23:33.166Z,54.99
2022-08-05T11:26:16.506Z,57.00
2022-08-05T11:28:56.298Z,58.85
2022-08-05T11:31:54.126Z,61.52
2022-08-05T11:34:36.610Z,59.74
2022-08-05T11:37:06.057Z,59.67
2022-08-05T11:40:00.741Z,60.36
2022-08-05T11:42:32.758Z,59.71
2022-08-05T11:45:23.083Z,58.95
2022-08-05T11:47:54.800Z,61.41
2022-08-05T11:50:21.849Z,62.07
2022-08-05T11:52:50.265Z,61.91
2022-08-05T11:55:18.675Z,62.08
2022-08-05T11:58:10.169Z,60.51
2022-08-05T12:00:38.561Z,59.75
2022-08-05T12:03:28.610Z,59.21
2022-08-05T12:06:06.240Z,61.13
2022-08-05T12:08:57.857Z,61.44
2022-08-05T12:11:28.398Z,62.44
2022-08-05T12:14:08.501Z,62.33
2022-08-05T12:16:45.148Z,61.30
2022-08-05T12:20:26.548Z,62.80
2022-08-05T12:21:58.565Z,64.39
2022-08-05T12:24:27.677Z,64.90
2022-08-05T12:26:54.344Z,65.03
2022-08-05T12:29:27.021Z,63.07
2022-08-05T12:31:57.052Z,63.70
2022-08-05T12:34:31.095Z,60.00
2022-08-05T12:37:00.827Z,60.56
2022-08-05T12:39:37.519Z,61.56
2022-08-05T12:42:16.200Z,60.93
2022-08-05T12:44:44.868Z,59.65
2022-08-05T12:47:13.765Z,59.71
2022-08-05T12:50:04.747Z,55.83
2022-08-05T12:52:39.703Z,54.19
2022-08-05T12:55:33.016Z,54.67
2022-08-05T12:58:51.342Z,52.81
2022-08-05T13:02:04.166Z,51.24
2022-08-05T13:03:42.482Z,49.55
2022-08-05T13:06:17.620Z,49.09
2022-08-05T13:08:52.198Z,47.51
2022-08-05T13:11:59.709Z,47.09
2022-08-05T13:14:25.023Z,48.74
2022-08-05T13:17:02.900Z,48.10
2022-08-05T13:22:29.529Z,49.39
2022-08-05T13:25:00.606Z,49.91
2022-08-05T13:27:39.920Z,47.41
2022-08-05T13:30:32.772Z,48.29
2022-08-05T13:32:56.480Z,48.67
2022-08-05T13:35:42.863Z,46.86
2022-08-05T13:38:15.763Z,46.60
2022-08-05T13:40:55.260Z,47.44
2022-08-05T13:43:22.366Z,48.21
2022-08-05T13:45:49.135Z,49.14
2022-08-05T13:48:57.520Z,49.91
2022-08-05T13:51:14.080Z,48.03
2022-08-05T13:53:48.067Z,48.03
2022-08-05T13:56:19.124Z,47.30
2022-08-05T13:58:53.144Z,55.20
2022-08-05T14:01:23.675Z,58.31
2022-08-05T14:04:12.458Z,61.21
2022-08-05T14:06:39.073Z,61.19
2022-08-05T14:09:14.400Z,60.93
2022-08-05T14:12:04.190Z,61.20
2022-08-05T14:14:33.639Z,60.63
2022-08-05T14:17:00.759Z,58.35
2022-08-05T14:19:27.473Z,58.38
2022-08-05T14:22:09.529Z,60.52
2022-08-05T14:24:39.875Z,58.52
2022-08-05T14:27:18.069Z,58.84
2022-08-05T14:29:45.228Z,54.81
2022-08-05T14:32:27.680Z,55.60
2022-08-05T14:34:56.725Z,56.98
2022-08-05T14:37:48.045Z,56.96
2022-08-05T14:40:12.670Z,58.55
2022-08-05T14:42:41.422Z,54.87
2022-08-05T14:45:10.076Z,54.57
2022-08-05T14:48:05.295Z,53.00
2022-08-05T14:50:25.378Z,53.49
2022-08-05T14:52:57.818Z,53.10
2022-08-05T14:55:38.663Z,50.58
2022-08-05T14:58:11.887Z,51.07
2022-08-05T15:00:59.531Z,49.99
2022-08-05T15:03:33.537Z,51.90
2022-08-05T15:06:07.673Z,52.47
2022-08-05T15:08:58.708Z,53.59
2022-08-05T15:11:52.248Z,54.02
2022-08-05T15:14:33.537Z,53.76
2022-08-05T15:17:00.032Z,54.51
2022-08-05T15:19:26.604Z,53.12
2022-08-05T15:21:53.363Z,52.93
2022-08-05T15:24:26.664Z,52.07
2022-08-05T15:26:53.262Z,53.89
2022-08-05T15:29:22.442Z,54.40
2022-08-05T15:31:53.085Z,55.04
2022-08-05T15:34:32.983Z,55.01
2022-08-05T15:37:06.331Z,56.98
2022-08-05T15:41:04.305Z,57.46
2022-08-05T15:42:55.798Z,56.71
2022-08-05T15:45:14.730Z,55.10
2022-08-05T15:47:42.914Z,55.21
2022-08-05T15:50:15.285Z,54.21
2022-08-05T15:52:54.608Z,55.23
2022-08-05T15:55:25.119Z,53.48
2022-08-05T15:58:09.455Z,54.56
2022-08-05T16:01:04.146Z,52.90
2022-08-05T16:03:29.771Z,53.75
2022-08-05T16:05:59.249Z,52.32
2022-08-05T16:08:30.742Z,51.63
2022-08-05T16:10:58.026Z,50.51
2022-08-05T16:13:31.929Z,48.70
2022-08-05T16:16:03.339Z,48.69
2022-08-05T16:18:30.568Z,48.61
2022-08-05T16:20:58.578Z,47.96
2022-08-05T16:23:28.374Z,48.81
2022-08-05T16:26:06.710Z,51.76
2022-08-05T16:28:36.280Z,53.40
2022-08-05T16:31:08.003Z,54.30
2022-08-05T16:33:41.635Z,51.27
2022-08-05T16:36:09.053Z,51.08
2022-08-05T16:38:35.705Z,52.82
2022-08-05T16:42:12.511Z,53.27
2022-08-05T16:43:49.311Z,54.06
2022-08-05T16:46:24.282Z,55.80
2022-08-05T16:48:51.506Z,56.82
2022-08-05T16:51:19.102Z,56.77
2022-08-05T16:54:04.770Z,57.38
2022-08-05T16:56:36.270Z,58.22
2022-08-05T16:59:07.626Z,57.39
2022-08-05T17:01:53.613Z,59.01
2022-08-05T17:04:21.992Z,62.20
2022-08-05T17:06:53.467Z,63.30
2022-08-05T17:09:20.336Z,64.67
2022-08-05T17:11:49.020Z,67.85
2022-08-05T17:14:22.363Z,69.24
2022-08-05T17:17:04.898Z,70.52
2022-08-05T17:19:31.591Z,70.71
2022-08-05T17:21:58.588Z,70.28
2022-08-05T17:24:36.479Z,71.72
2022-08-05T17:27:07.195Z,72.10
2022-08-05T17:29:41.056Z,70.81
2022-08-05T17:32:17.252Z,70.89
2022-08-05T17:34:49.266Z,70.37
2022-08-05T17:37:40.487Z,69.97
2022-08-05T17:40:10.324Z,69.82
2022-08-05T17:42:41.719Z,67.71
2022-08-05T17:45:20.757Z,66.39
2022-08-05T17:47:53.892Z,65.59
2022-08-05T17:50:28.715Z,69.98
2022-08-05T17:52:58.957Z,67.34
2022-08-05T17:55:27.574Z,65.36
2022-08-05T17:58:03.714Z,65.39
2022-08-05T18:00:30.275Z,65.92
2022-08-05T18:02:57.509Z,66.82
2022-08-05T18:05:28.090Z,67.89
2022-08-05T18:07:54.998Z,66.38
2022-08-05T18:10:23.866Z,66.98
2022-08-05T18:12:50.384Z,66.95
2022-08-05T18:15:17.232Z,68.60
2022-08-05T18:18:00.353Z,69.36
2022-08-05T18:20:31.979Z,70.79
2022-08-05T18:23:00.724Z,71.03
2022-08-05T18:25:36.878Z,70.68
2022-08-05T18:28:06.388Z,71.89
2022-08-05T18:30:33.706Z,72.17
2022-08-05T18:33:01.437Z,72.10
2022-08-05T18:35:49.549Z,70.57
2022-08-05T18:38:19.460Z,71.29
2022-08-05T18:41:57.641Z,72.74
2022-08-05T18:43:43.019Z,73.21
2022-08-05T18:46:19.592Z,73.81
2022-08-05T18:48:48.388Z,73.53
2022-08-05T18:52:02.691Z,73.30
2022-08-05T18:54:25.822Z,75.56
2022-08-05T18:56:54.099Z,76.14
2022-08-05T18:59:43.960Z,76.81
2022-08-05T19:02:11.156Z,78.16
2022-08-05T19:05:02.981Z,78.97
2022-08-05T19:07:45.158Z,78.76
2022-08-05T19:10:12.319Z,79.40
2022-08-05T19:12:39.023Z,80.64
2022-08-05T19:15:06.374Z,80.05
2022-08-05T19:17:59.182Z,80.09
2022-08-05T19:20:36.920Z,81.14
2022-08-05T19:23:07.995Z,81.17
2022-08-05T19:25:42.000Z,81.66
2022-08-05T19:28:10.408Z,80.50
2022-08-05T19:30:37.003Z,81.39
2022-08-05T19:33:05.107Z,83.04
2022-08-05T19:35:56.688Z,82.20
2022-08-05T19:38:26.680Z,81.17
2022-08-05T19:40:53.537Z,81.42
2022-08-05T19:44:04.035Z,81.53
2022-08-05T19:46:06.698Z,82.78
2022-08-05T19:48:53.265Z,83.07
2022-08-05T19:52:05.039Z,82.57
2022-08-05T19:54:17.720Z,81.39
2022-08-05T19:56:54.343Z,83.73
2022-08-05T19:59:51.427Z,83.69
2022-08-05T20:02:07.527Z,83.36
2022-08-05T20:04:34.150Z,84.32
2022-08-05T20:07:00.770Z,85.77
2022-08-05T20:09:28.781Z,86.96
2022-08-05T20:12:15.465Z,86.76
2022-08-05T20:14:42.034Z,87.70
2022-08-05T20:17:10.053Z,88.86
2022-08-05T20:19:42.749Z,89.51
2022-08-05T20:22:09.762Z,89.27
2022-08-05T20:24:36.481Z,90.03
2022-08-05T20:27:04.756Z,89.06
2022-08-05T20:29:38.059Z,90.27
2022-08-05T20:32:08.416Z,90.95
2022-08-05T20:34:36.969Z,91.35
2022-08-05T20:37:03.670Z,92.82
2022-08-05T20:39:35.522Z,93.29
2022-08-05T20:42:04.362Z,93.14
2022-08-05T20:44:33.221Z,93.77
2022-08-05T20:47:07.418Z,92.37
2022-08-05T20:49:39.378Z,94.16
2022-08-05T20:52:07.318Z,94.12
2022-08-05T20:54:43.214Z,94.17
2022-08-05T20:57:42.193Z,94.18
2022-08-05T21:00:41.139Z,94.56
2022-08-05T21:03:01.102Z,95.45
2022-08-05T21:05:38.065Z,96.00
2022-08-05T21:08:14.819Z,95.69
2022-08-05T21:10:48.472Z,95.78
2022-08-05T21:13:26.028Z,97.12
2022-08-05T21:16:03.695Z,97.19
2022-08-05T21:18:30.401Z,96.84
2022-08-05T21:20:57.290Z,98.63
2022-08-05T21:23:24.617Z,98.66
2022-08-05T21:25:51.659Z,100.00
2022-08-05T21:28:23.784Z,100.00
2022-08-05T21:30:57.197Z,99.57
2022-08-05T21:33:24.199Z,99.90
2022-08-05T21:36:03.946Z,100.00
2022-08-05T21:38:30.648Z,100.00
2022-08-05T21:40:57.627Z,100.00
2022-08-05T21:43:25.131Z,100.00
2022-08-05T21:45:57.952Z,100.00
2022-08-05T21:48:28.017Z,100.00
2022-08-05T21:50:55.204Z,100.00
2022-08-05T21:53:27.098Z,100.00
2022-08-05T21:56:05.078Z,100.00
2022-08-05T21:58:34.529Z,100.00
2022-08-05T22:01:04.911Z,100.00
2022-08-05T22:03:52.307Z,100.00
2022-08-05T22:06:23.014Z,100.00
2022-08-05T22:09:01.892Z,100.00
2022-08-05T22:11:40.734Z,100.00
2022-08-05T22:14:32.586Z,100.00
2022-08-05T22:16:57.904Z,100.00
2022-08-05T22:20:00.677Z,100.00
2022-08-05T22:22:15.479Z,100.00
2022-08-05T22:25:01.847Z,100.00
2022-08-05T22:28:11.185Z,100.00
2022-08-05T22:30:35.115Z,100.00
2022-08-05T22:33:03.714Z,100.00
2022-08-05T22:35:38.647Z,100.00
2022-08-05T22:38:15.625Z,100.00
2022-08-05T22:40:42.180Z,100.00
2022-08-05T22:43:16.992Z,100.00
2022-08-05T22:46:12.151Z,100.00
2022-08-05T22:48:41.011Z,100.00
2022-08-05T22:51:07.715Z,100.00
2022-08-05T22:53:35.860Z,100.00
2022-08-05T22:56:04.121Z,100.00
2022-08-05T22:58:36.769Z,100.00
2022-08-05T23:01:03.366Z,100.00
2022-08-05T23:03:58.283Z,100.00
2022-08-05T23:06:18.927Z,100.00
2022-08-05T23:08:45.691Z,100.00
2022-08-05T23:11:18.742Z,100.00
2022-08-05T23:13:45.808Z,100.00
2022-08-05T23:16:33.244Z,100.00
2022-08-05T23:19:00.295Z,100.00
2022-08-05T23:21:43.100Z,100.00
2022-08-05T23:24:15.010Z,100.00
2022-08-05T23:26:41.791Z,100.00
2022-08-05T23:29:10.743Z,100.00
2022-08-05T23:31:43.696Z,100.00
2022-08-05T23:34:11.274Z,100.00
2022-08-05T23:36:40.189Z,100.00
2022-08-05T23:39:17.419Z,100.00
2022-08-05T23:41:58.854Z,100.00
2022-08-05T23:44:28.004Z,100.00
2022-08-05T23:46:59.328Z,100.00
2022-08-05T23:49:35.693Z,100.00
2022-08-05T23:52:22.121Z,100.00
2022-08-05T23:55:05.260Z,100.00
2022-08-05T23:57:34.009Z,100.00
